createdAt,value
2018-08-22T00:01:10.715Z,100518.92
2018-08-22T00:03:39.836Z,100525.51
2018-08-22T00:06:09.058Z,100520.96
2018-08-22T00:08:45.390Z,100522.81
2018-08-22T00:11:15.016Z,100517.55
2018-08-22T00:13:44.815Z,100523.39
2018-08-22T00:16:13.982Z,100523.48
2018-08-22T00:18:43.167Z,100522.86
2018-08-22T00:21:12.292Z,100520.89
2018-08-22T00:23:41.382Z,100522.75
2018-08-22T00:26:10.556Z,100517.58
2018-08-22T00:28:39.709Z,100516.48
2018-08-22T00:31:08.846Z,100516.09
2018-08-22T00:33:37.957Z,100505.08
2018-08-22T00:36:07.277Z,100508.23
2018-08-22T00:38:36.392Z,100500.81
2018-08-22T00:41:05.507Z,100505.41
2018-08-22T00:43:34.608Z,100511.87
2018-08-22T00:46:03.793Z,100513.56
2018-08-22T00:48:32.888Z,100510.70
2018-08-22T00:51:02.112Z,100505.78
2018-08-22T00:53:31.228Z,100510.85
2018-08-22T00:56:00.375Z,100501.44
2018-08-22T00:58:29.440Z,100497.53
2018-08-22T01:00:58.647Z,100506.45
2018-08-22T01:03:27.786Z,100502.91
2018-08-22T01:05:56.918Z,100498.30
2018-08-22T01:08:26.051Z,100492.75
2018-08-22T01:10:55.197Z,100493.36
2018-08-22T01:13:24.296Z,100494.15
2018-08-22T01:15:53.587Z,100486.16
2018-08-22T01:18:22.650Z,100489.93
2018-08-22T01:20:51.837Z,100484.52
2018-08-22T01:23:20.993Z,100482.39
2018-08-22T01:25:50.168Z,100488.88
2018-08-22T01:28:19.322Z,100492.66
2018-08-22T01:30:48.409Z,100485.54
2018-08-22T01:33:17.507Z,100489.47
2018-08-22T01:35:46.666Z,100488.48
2018-08-22T01:38:15.839Z,100494.37
2018-08-22T01:40:44.992Z,100487.86
2018-08-22T01:43:14.163Z,100486.84
2018-08-22T01:45:43.354Z,100486.75
2018-08-22T01:48:12.470Z,100488.42
2018-08-22T01:50:41.692Z,100484.95
2018-08-22T01:53:10.821Z,100492.17
2018-08-22T01:55:40.013Z,100492.08
2018-08-22T01:58:09.108Z,100491.81
2018-08-22T02:00:38.249Z,100488.00
2018-08-22T02:03:07.351Z,100486.53
2018-08-22T02:05:36.505Z,100484.13
2018-08-22T02:08:05.917Z,100484.87
2018-08-22T02:10:35.173Z,100479.12
2018-08-22T02:13:04.470Z,100477.77
2018-08-22T02:15:33.745Z,100477.11
2018-08-22T02:18:03.372Z,100481.70
2018-08-22T02:20:32.516Z,100476.41
2018-08-22T02:23:01.795Z,100477.45
2018-08-22T02:25:31.050Z,100487.01
2018-08-22T02:28:00.225Z,100487.86
2018-08-22T02:30:29.373Z,100484.41
2018-08-22T02:32:58.561Z,100482.84
2018-08-22T02:35:27.653Z,100481.03
2018-08-22T02:37:56.900Z,100480.20
2018-08-22T02:40:26.028Z,100486.14
2018-08-22T02:42:55.221Z,100490.31
2018-08-22T02:45:24.334Z,100490.28
2018-08-22T02:47:53.510Z,100487.30
2018-08-22T02:50:22.669Z,100485.87
2018-08-22T02:52:51.799Z,100487.66
2018-08-22T02:55:20.880Z,100481.97
2018-08-22T02:57:50.122Z,100476.89
2018-08-22T03:00:19.349Z,100476.06
2018-08-22T03:02:48.511Z,100474.94
2018-08-22T03:05:17.632Z,100469.59
2018-08-22T03:07:46.818Z,100473.83
2018-08-22T03:10:15.905Z,100472.33
2018-08-22T03:12:45.209Z,100486.22
2018-08-22T03:15:14.383Z,100481.81
2018-08-22T03:17:44.093Z,100483.39
2018-08-22T03:20:13.336Z,100487.84
2018-08-22T03:22:42.588Z,100481.09
2018-08-22T03:25:11.669Z,100481.61
2018-08-22T03:27:40.891Z,100483.38
2018-08-22T03:30:09.994Z,100480.08
2018-08-22T03:32:39.238Z,100473.47
2018-08-22T03:35:08.491Z,100473.27
2018-08-22T03:37:37.721Z,100472.39
2018-08-22T03:40:06.843Z,100474.98
2018-08-22T03:42:36.029Z,100470.07
2018-08-22T03:45:05.311Z,100472.07
2018-08-22T03:47:34.558Z,100469.08
2018-08-22T03:50:03.713Z,100465.36
2018-08-22T03:52:32.857Z,100469.12
2018-08-22T03:55:02.215Z,100467.65
2018-08-22T03:57:31.405Z,100474.10
2018-08-22T04:00:00.587Z,100474.41
2018-08-22T04:02:29.787Z,100476.03
2018-08-22T04:04:58.971Z,100475.16
2018-08-22T04:07:28.235Z,100474.16
2018-08-22T04:09:57.427Z,100474.22
2018-08-22T04:12:26.595Z,100472.38
2018-08-22T04:14:55.747Z,100472.61
2018-08-22T04:17:29.913Z,100469.31
2018-08-22T04:19:59.054Z,100477.35
2018-08-22T04:22:28.283Z,100479.58
2018-08-22T04:24:57.629Z,100472.36
2018-08-22T04:27:26.828Z,100476.81
2018-08-22T04:29:55.954Z,100475.45
2018-08-22T04:32:25.306Z,100471.45
2018-08-22T04:34:54.495Z,100476.89
2018-08-22T04:37:23.752Z,100470.61
2018-08-22T04:39:53.015Z,100482.16
2018-08-22T04:42:22.211Z,100479.17
2018-08-22T04:44:51.395Z,100483.70
2018-08-22T04:47:20.638Z,100482.11
2018-08-22T04:49:49.861Z,100481.09
2018-08-22T04:52:19.381Z,100482.11
2018-08-22T04:54:48.820Z,100479.77
2018-08-22T04:57:18.080Z,100478.47
2018-08-22T04:59:47.285Z,100481.32
2018-08-22T05:02:16.385Z,100487.15
2018-08-22T05:04:45.620Z,100480.16
2018-08-22T05:07:14.921Z,100480.48
2018-08-22T05:09:44.218Z,100481.03
2018-08-22T05:12:13.592Z,100477.09
2018-08-22T05:14:42.913Z,100484.03
2018-08-22T05:17:12.101Z,100488.70
2018-08-22T05:19:41.386Z,100490.82
2018-08-22T05:22:10.574Z,100485.00
2018-08-22T05:24:39.880Z,100491.89
2018-08-22T05:27:09.170Z,100495.14
2018-08-22T05:29:38.507Z,100485.05
2018-08-22T05:32:07.697Z,100490.08
2018-08-22T05:34:37.090Z,100488.92
2018-08-22T05:37:06.421Z,100494.59
2018-08-22T05:39:35.665Z,100484.84
2018-08-22T05:42:04.844Z,100492.59
2018-08-22T05:44:34.150Z,100482.72
2018-08-22T05:47:03.339Z,100488.81
2018-08-22T05:49:32.607Z,100493.38
2018-08-22T05:52:01.764Z,100492.95
2018-08-22T05:54:31.070Z,100485.52
2018-08-22T05:57:00.293Z,100493.66
2018-08-22T05:59:29.535Z,100498.11
2018-08-22T06:01:58.762Z,100496.06
2018-08-22T06:04:28.234Z,100491.57
2018-08-22T06:06:57.624Z,100488.27
2018-08-22T06:09:26.973Z,100486.30
2018-08-22T06:11:59.403Z,100493.50
2018-08-22T06:14:30.567Z,100482.63
2018-08-22T06:17:00.772Z,100483.23
2018-08-22T06:19:30.411Z,100490.61
2018-08-22T06:22:00.060Z,100489.14
2018-08-22T06:24:29.974Z,100488.94
2018-08-22T06:26:59.677Z,100498.14
2018-08-22T06:29:29.441Z,100488.02
2018-08-22T06:31:59.050Z,100489.56
2018-08-22T06:34:29.057Z,100485.66
2018-08-22T06:36:59.303Z,100487.52
2018-08-22T06:39:29.130Z,100488.48
2018-08-22T06:41:58.706Z,100493.48
2018-08-22T06:44:28.369Z,100492.89
2018-08-22T06:46:58.427Z,100494.63
2018-08-22T06:49:28.943Z,100496.60
2018-08-22T06:52:00.106Z,100501.52
2018-08-22T06:54:30.562Z,100496.22
2018-08-22T06:57:01.324Z,100497.97
2018-08-22T06:59:32.377Z,100489.93
2018-08-22T07:02:02.626Z,100490.95
2018-08-22T07:04:32.633Z,100487.41
2018-08-22T07:07:04.501Z,100485.91
2018-08-22T07:09:38.970Z,100490.02
2018-08-22T07:12:11.209Z,100482.77
2018-08-22T07:14:43.297Z,100481.84
2018-08-22T07:17:14.774Z,100485.81
2018-08-22T07:19:44.853Z,100492.06
2018-08-22T07:22:15.569Z,100488.13
2018-08-22T07:24:46.173Z,100484.91
2018-08-22T07:27:15.882Z,100492.21
2018-08-22T07:29:47.439Z,100490.34
2018-08-22T07:32:17.148Z,100494.14
2018-08-22T07:35:05.948Z,100494.84
2018-08-22T07:37:35.095Z,100499.33
2018-08-22T07:40:04.440Z,100501.43
2018-08-22T07:42:33.703Z,100503.41
2018-08-22T07:45:02.991Z,100509.14
2018-08-22T07:47:32.238Z,100507.83
2018-08-22T07:50:01.807Z,100508.75
2018-08-22T07:52:31.162Z,100506.91
2018-08-22T07:55:00.641Z,100515.83
2018-08-22T07:57:29.817Z,100518.19
2018-08-22T07:59:59.184Z,100507.22
2018-08-22T08:02:28.521Z,100506.59
2018-08-22T08:04:57.795Z,100497.06
2018-08-22T08:07:27.026Z,100504.27
2018-08-22T08:09:56.250Z,100504.27
2018-08-22T08:12:32.660Z,100498.37
2018-08-22T08:15:05.096Z,100494.55
2018-08-22T08:17:34.189Z,100496.69
2018-08-22T08:20:03.174Z,100496.36
2018-08-22T08:22:32.129Z,100489.91
2018-08-22T08:25:01.406Z,100485.95
2018-08-22T08:27:30.355Z,100489.53
2018-08-22T08:29:59.576Z,100488.81
2018-08-22T08:32:28.958Z,100494.10
2018-08-22T08:34:58.282Z,100492.20
2018-08-22T08:37:27.523Z,100484.99
2018-08-22T08:39:56.784Z,100491.68
2018-08-22T08:42:26.185Z,100487.48
2018-08-22T08:44:55.586Z,100480.06
2018-08-22T08:47:25.206Z,100487.40
2018-08-22T08:49:54.660Z,100477.69
2018-08-22T08:52:23.848Z,100483.00
2018-08-22T08:54:54.090Z,100482.62
2018-08-22T08:57:23.334Z,100483.36
2018-08-22T08:59:52.633Z,100481.45
2018-08-22T09:02:22.078Z,100481.51
2018-08-22T09:04:51.262Z,100474.98
2018-08-22T09:07:20.626Z,100471.98
2018-08-22T09:09:49.951Z,100467.62
2018-08-22T09:12:19.357Z,100466.48
2018-08-22T09:14:48.502Z,100465.67
2018-08-22T09:17:17.951Z,100467.80
2018-08-22T09:19:47.573Z,100467.27
2018-08-22T09:22:16.945Z,100465.52
2018-08-22T09:24:46.259Z,100462.20
2018-08-22T09:27:15.740Z,100464.87
2018-08-22T09:29:44.887Z,100455.61
2018-08-22T09:32:14.036Z,100461.00
2018-08-22T09:34:43.637Z,100460.63
2018-08-22T09:37:12.947Z,100460.19
2018-08-22T09:39:42.257Z,100455.00
2018-08-22T09:42:11.618Z,100456.44
2018-08-22T09:44:40.705Z,100448.76
2018-08-22T09:47:10.034Z,100453.73
2018-08-22T09:49:39.344Z,100448.59
2018-08-22T09:52:08.813Z,100445.28
2018-08-22T09:54:51.873Z,100447.64
2018-08-22T09:57:21.110Z,100443.81
2018-08-22T09:59:50.543Z,100444.70
2018-08-22T10:02:19.829Z,100435.77
2018-08-22T10:04:49.214Z,100436.80
2018-08-22T10:07:18.542Z,100433.16
2018-08-22T10:09:47.848Z,100430.93
2018-08-22T10:12:17.308Z,100423.03
2018-08-22T10:14:46.866Z,100423.81
2018-08-22T10:17:16.323Z,100422.55
2018-08-22T10:19:45.692Z,100415.02
2018-08-22T10:22:14.826Z,100413.74
2018-08-22T10:24:44.160Z,100405.62
2018-08-22T10:27:13.524Z,100401.44
2018-08-22T10:29:42.990Z,100398.79
2018-08-22T10:32:12.365Z,100388.58
2018-08-22T10:34:41.642Z,100391.02
2018-08-22T10:37:10.805Z,100382.14
2018-08-22T10:39:40.026Z,100382.20
2018-08-22T10:42:09.501Z,100382.80
2018-08-22T10:44:38.626Z,100379.72
2018-08-22T10:47:08.114Z,100379.17
2018-08-22T10:49:37.273Z,100379.14
2018-08-22T10:52:06.609Z,100377.45
2018-08-22T10:54:35.878Z,100374.07
2018-08-22T10:57:05.660Z,100371.31
2018-08-22T10:59:35.174Z,100373.11
2018-08-22T11:02:04.554Z,100369.37
2018-08-22T11:04:33.767Z,100371.70
2018-08-22T11:07:03.025Z,100371.80
2018-08-22T11:09:32.525Z,100359.16
2018-08-22T11:12:01.931Z,100366.31
2018-08-22T11:14:31.288Z,100366.39
2018-08-22T11:17:00.843Z,100364.61
2018-08-22T11:19:30.144Z,100363.83
2018-08-22T11:22:10.323Z,100364.86
2018-08-22T11:24:50.557Z,100353.94
2018-08-22T11:27:30.817Z,100353.44
2018-08-22T11:30:11.172Z,100350.41
2018-08-22T11:32:51.427Z,100345.60
2018-08-22T11:35:20.143Z,100339.67
2018-08-22T11:37:49.699Z,100345.53
2018-08-22T11:40:19.132Z,100344.50
2018-08-22T11:42:48.632Z,100349.23
2018-08-22T11:45:17.989Z,100344.86
2018-08-22T11:47:47.188Z,100345.27
2018-08-22T11:50:16.487Z,100339.31
2018-08-22T11:52:45.950Z,100338.56
2018-08-22T11:55:15.381Z,100338.28
2018-08-22T11:57:44.889Z,100338.05
2018-08-22T12:00:14.150Z,100334.64
2018-08-22T12:02:43.471Z,100337.99
2018-08-22T12:05:12.860Z,100335.06
2018-08-22T12:07:42.358Z,100327.59
2018-08-22T12:10:11.654Z,100331.28
2018-08-22T12:12:41.010Z,100327.84
2018-08-22T12:15:10.541Z,100315.13
2018-08-22T12:17:39.770Z,100316.16
2018-08-22T12:20:08.917Z,100312.81
2018-08-22T12:22:38.194Z,100311.78
2018-08-22T12:25:07.509Z,100311.61
2018-08-22T12:27:36.888Z,100311.45
2018-08-22T12:30:06.407Z,100306.44
2018-08-22T12:32:35.764Z,100300.25
2018-08-22T12:35:05.013Z,100297.36
2018-08-22T12:37:34.403Z,100299.53
2018-08-22T12:40:03.936Z,100301.75
2018-08-22T12:42:33.284Z,100296.78
2018-08-22T12:45:02.564Z,100290.34
2018-08-22T12:47:31.963Z,100295.20
2018-08-22T12:50:01.256Z,100285.00
2018-08-22T12:52:30.586Z,100269.59
2018-08-22T12:55:00.282Z,100275.92
2018-08-22T12:57:29.545Z,100268.77
2018-08-22T12:59:58.801Z,100279.70
2018-08-22T13:02:28.235Z,100268.67
2018-08-22T13:04:57.216Z,100266.00
2018-08-22T13:07:26.241Z,100259.94
2018-08-22T13:09:55.184Z,100259.15
2018-08-22T13:12:24.209Z,100254.66
2018-08-22T13:14:53.475Z,100252.48
2018-08-22T13:17:22.762Z,100250.66
2018-08-22T13:19:51.985Z,100247.95
2018-08-22T13:22:21.271Z,100248.58
2018-08-22T13:24:50.621Z,100242.75
2018-08-22T13:27:19.572Z,100240.98
2018-08-22T13:29:48.875Z,100236.34
2018-08-22T13:32:17.822Z,100225.48
2018-08-22T13:34:46.811Z,100223.50
2018-08-22T13:37:15.787Z,100222.88
2018-08-22T13:39:44.955Z,100212.06
2018-08-22T13:42:14.306Z,100217.23
2018-08-22T13:44:43.841Z,100213.69
2018-08-22T13:47:13.259Z,100207.46
2018-08-22T13:49:42.576Z,100203.31
2018-08-22T13:52:12.002Z,100204.12
2018-08-22T13:54:41.258Z,100209.35
2018-08-22T13:57:10.565Z,100200.61
2018-08-22T13:59:39.780Z,100198.22
2018-08-22T14:02:09.153Z,100187.54
2018-08-22T14:04:38.138Z,100185.45
2018-08-22T14:07:07.126Z,100185.39
2018-08-22T14:09:36.122Z,100184.29
2018-08-22T14:12:05.033Z,100184.89
2018-08-22T14:14:34.106Z,100185.91
2018-08-22T14:17:03.093Z,100180.03
2018-08-22T14:19:32.064Z,100176.07
2018-08-22T14:22:01.062Z,100177.39
2018-08-22T14:24:30.078Z,100168.95
2018-08-22T14:26:59.093Z,100173.53
2018-08-22T14:29:28.069Z,100174.08
2018-08-22T14:31:57.181Z,100171.49
2018-08-22T14:34:26.723Z,100170.36
2018-08-22T14:36:56.177Z,100170.20
2018-08-22T14:39:25.381Z,100161.31
2018-08-22T14:41:54.562Z,100163.80
2018-08-22T14:44:23.881Z,100159.70
2018-08-22T14:46:52.915Z,100158.50
2018-08-22T14:49:21.965Z,100158.54
2018-08-22T14:51:50.923Z,100155.73
2018-08-22T14:54:19.937Z,100154.27
2018-08-22T14:56:48.914Z,100148.97
2018-08-22T14:59:17.930Z,100155.96
2018-08-22T15:01:46.964Z,100158.92
2018-08-22T15:04:15.952Z,100151.48
2018-08-22T15:06:45.140Z,100150.25
2018-08-22T15:09:18.475Z,100151.92
2018-08-22T15:11:47.673Z,100141.31
2018-08-22T15:14:16.678Z,100142.44
2018-08-22T15:16:45.661Z,100136.09
2018-08-22T15:19:14.682Z,100128.84
2018-08-22T15:21:43.766Z,100127.61
2018-08-22T15:24:12.802Z,100123.83
2018-08-22T15:26:41.941Z,100120.88
2018-08-22T15:29:11.014Z,100113.94
2018-08-22T15:31:40.067Z,100116.78
2018-08-22T15:34:09.093Z,100115.59
2018-08-22T15:36:38.356Z,100113.09
2018-08-22T15:39:09.497Z,100108.31
2018-08-22T15:41:38.569Z,100110.95
2018-08-22T15:44:07.637Z,100097.20
2018-08-22T15:46:36.651Z,100095.59
2018-08-22T15:49:05.608Z,100104.01
2018-08-22T15:51:34.626Z,100103.84
2018-08-22T15:54:12.978Z,100109.27
2018-08-22T15:56:42.628Z,100101.75
2018-08-22T15:59:12.836Z,100103.09
2018-08-22T16:01:42.361Z,100101.41
2018-08-22T16:04:11.422Z,100093.51
2018-08-22T16:06:40.510Z,100096.35
2018-08-22T16:09:16.043Z,100084.77
2018-08-22T16:11:45.215Z,100091.76
2018-08-22T16:14:14.302Z,100089.64
2018-08-22T16:16:43.320Z,100088.50
2018-08-22T16:19:12.386Z,100081.39
2018-08-22T16:21:41.324Z,100082.30
2018-08-22T16:24:10.422Z,100087.86
2018-08-22T16:26:39.383Z,100080.19
2018-08-22T16:29:08.501Z,100082.60
2018-08-22T16:31:42.610Z,100073.07
2018-08-22T16:34:12.290Z,100073.39
2018-08-22T16:36:41.372Z,100080.08
2018-08-22T16:39:10.925Z,100065.69
2018-08-22T16:41:40.182Z,100068.41
2018-08-22T16:44:10.155Z,100071.26
2018-08-22T16:46:39.123Z,100072.48
2018-08-22T16:49:08.090Z,100064.53
2018-08-22T16:51:37.149Z,100066.90
2018-08-22T16:54:09.132Z,100068.33
2018-08-22T16:56:38.525Z,100070.47
2018-08-22T16:59:14.193Z,100067.97
2018-08-22T17:01:48.189Z,100074.02
2018-08-22T17:04:17.284Z,100065.73
2018-08-22T17:06:46.473Z,100070.94
2018-08-22T17:09:15.478Z,100064.59
2018-08-22T17:11:44.804Z,100064.93
2018-08-22T17:14:14.058Z,100066.30
2018-08-22T17:16:43.623Z,100059.28
2018-08-22T17:19:12.867Z,100067.36
2018-08-22T17:21:41.985Z,100070.82
2018-08-22T17:24:11.233Z,100068.19
2018-08-22T17:26:40.833Z,100076.66
2018-08-22T17:29:10.209Z,100069.52
2018-08-22T17:31:39.561Z,100067.24
2018-08-22T17:34:08.490Z,100073.58
2018-08-22T17:36:37.538Z,100076.73
2018-08-22T17:39:07.820Z,100065.97
2018-08-22T17:41:36.805Z,100067.11
2018-08-22T17:44:11.567Z,100079.41
2018-08-22T17:46:44.840Z,100080.75
2018-08-22T17:49:13.808Z,100084.98
2018-08-22T17:51:56.009Z,100082.87
2018-08-22T17:54:25.447Z,100081.19
2018-08-22T17:57:06.059Z,100076.57
2018-08-22T17:59:35.466Z,100081.73
2018-08-22T18:02:04.588Z,100079.25
2018-08-22T18:04:44.843Z,100083.12
2018-08-22T18:07:14.413Z,100081.51
2018-08-22T18:09:43.635Z,100086.68
2018-08-22T18:12:12.644Z,100084.56
2018-08-22T18:14:41.628Z,100082.89
2018-08-22T18:17:10.654Z,100082.25
2018-08-22T18:19:40.152Z,100083.17
2018-08-22T18:22:09.788Z,100087.61
2018-08-22T18:24:44.292Z,100084.87
2018-08-22T18:27:13.396Z,100093.50
2018-08-22T18:29:44.875Z,100091.58
2018-08-22T18:32:14.460Z,100094.11
2018-08-22T18:34:56.448Z,100094.94
2018-08-22T18:37:26.354Z,100098.80
2018-08-22T18:40:25.007Z,100098.80
2018-08-22T18:43:00.924Z,100100.44
2018-08-22T18:45:30.273Z,100098.80
2018-08-22T18:48:00.774Z,100105.95
2018-08-22T18:50:29.757Z,100094.95
2018-08-22T18:53:00.067Z,100099.62
2018-08-22T18:55:30.453Z,100097.34
2018-08-22T18:58:01.174Z,100109.25
2018-08-22T19:00:30.218Z,100112.20
2018-08-22T19:02:59.640Z,100113.63
2018-08-22T19:05:30.907Z,100113.30
2018-08-22T19:08:05.238Z,100117.66
2018-08-22T19:10:37.211Z,100111.61
2018-08-22T19:13:11.329Z,100114.31
2018-08-22T19:15:40.280Z,100112.30
2018-08-22T19:18:10.299Z,100120.55
2018-08-22T19:20:39.394Z,100119.58
2018-08-22T19:23:08.369Z,100121.63
2018-08-22T19:25:37.441Z,100120.75
2018-08-22T19:28:06.463Z,100120.21
2018-08-22T19:30:36.559Z,100128.59
2018-08-22T19:33:08.615Z,100126.23
2018-08-22T19:35:37.992Z,100134.95
2018-08-22T19:38:07.851Z,100131.73
2018-08-22T19:40:37.513Z,100140.72
2018-08-22T19:43:06.462Z,100138.02
2018-08-22T19:45:36.698Z,100140.01
2018-08-22T19:48:05.782Z,100142.78
2018-08-22T19:50:34.872Z,100147.05
2018-08-22T19:53:03.832Z,100145.00
2018-08-22T19:55:33.473Z,100148.11
2018-08-22T19:58:02.515Z,100140.94
2018-08-22T20:00:31.553Z,100146.90
2018-08-22T20:03:00.503Z,100150.86
2018-08-22T20:06:04.494Z,100146.59
2018-08-22T20:08:37.769Z,100148.52
2018-08-22T20:11:07.273Z,100150.45
2018-08-22T20:13:49.356Z,100148.00
2018-08-22T20:16:19.617Z,100145.26
2018-08-22T20:18:55.325Z,100145.52
2018-08-22T20:21:40.437Z,100150.65
2018-08-22T20:24:11.139Z,100152.02
2018-08-22T20:26:49.527Z,100152.70
2018-08-22T20:29:18.422Z,100153.84
2018-08-22T20:31:47.475Z,100155.33
2018-08-22T20:34:16.949Z,100156.41
2018-08-22T20:36:47.657Z,100155.08
2018-08-22T20:39:16.777Z,100152.39
2018-08-22T20:41:46.004Z,100155.90
2018-08-22T20:44:17.427Z,100155.90
2018-08-22T20:46:47.626Z,100162.32
2018-08-22T20:49:18.831Z,100155.93
2018-08-22T20:51:48.107Z,100157.44
2018-08-22T20:54:22.607Z,100153.05
2018-08-22T20:56:56.746Z,100153.08
2018-08-22T20:59:25.834Z,100150.72
2018-08-22T21:02:06.223Z,100148.02
2018-08-22T21:04:36.154Z,100151.90
2018-08-22T21:07:05.542Z,100145.63
2018-08-22T21:09:34.534Z,100142.72
2018-08-22T21:12:04.881Z,100148.73
2018-08-22T21:14:33.863Z,100148.78
2018-08-22T21:17:02.861Z,100154.97
2018-08-22T21:19:31.825Z,100153.06
2018-08-22T21:22:00.849Z,100153.78
2018-08-22T21:24:29.842Z,100150.44
2018-08-22T21:26:58.835Z,100153.86
2018-08-22T21:29:27.858Z,100150.44
2018-08-22T21:31:56.874Z,100151.55
2018-08-22T21:34:25.953Z,100148.02
2018-08-22T21:36:54.986Z,100154.17
2018-08-22T21:39:27.155Z,100151.78
2018-08-22T21:41:56.292Z,100144.34
2018-08-22T21:44:25.413Z,100150.26
2018-08-22T21:47:00.877Z,100150.77
2018-08-22T21:49:30.512Z,100160.14
2018-08-22T21:52:01.014Z,100158.19
2018-08-22T21:54:30.050Z,100156.01
2018-08-22T21:56:59.101Z,100157.62
2018-08-22T21:59:28.202Z,100159.77
2018-08-22T22:02:02.288Z,100158.63
2018-08-22T22:04:33.835Z,100164.99
2018-08-22T22:07:03.899Z,100162.35
2018-08-22T22:09:32.845Z,100165.66
2018-08-22T22:12:02.512Z,100157.18
2018-08-22T22:14:32.554Z,100158.73
2018-08-22T22:17:02.615Z,100160.39
2018-08-22T22:19:33.707Z,100159.48
2018-08-22T22:22:03.428Z,100162.59
2018-08-22T22:24:32.505Z,100159.02
2018-08-22T22:27:01.454Z,100167.30
2018-08-22T22:29:31.987Z,100164.70
2018-08-22T22:32:00.930Z,100159.78
2018-08-22T22:34:30.026Z,100163.39
2018-08-22T22:36:58.994Z,100170.09
2018-08-22T22:39:43.847Z,100167.14
2018-08-22T22:42:20.781Z,100169.80
2018-08-22T22:44:51.058Z,100162.09
2018-08-22T22:47:25.249Z,100162.47
2018-08-22T22:49:54.345Z,100166.93
2018-08-22T22:52:30.320Z,100157.14
2018-08-22T22:55:00.498Z,100163.08
2018-08-22T22:57:31.221Z,100157.24
2018-08-22T23:00:00.725Z,100157.24
2018-08-22T23:02:30.253Z,100162.70
2018-08-22T23:04:59.979Z,100152.56
2018-08-22T23:07:34.314Z,100155.19
2018-08-22T23:10:05.436Z,100150.89
2018-08-22T23:12:40.980Z,100153.92
2018-08-22T23:15:12.461Z,100148.36
2018-08-22T23:17:41.862Z,100151.20
2018-08-22T23:20:44.455Z,100143.01
2018-08-22T23:23:27.471Z,100143.14
2018-08-22T23:25:58.966Z,100145.86
2018-08-22T23:28:28.149Z,100150.09
2018-08-22T23:30:57.140Z,100150.00
2018-08-22T23:33:26.094Z,100155.82
2018-08-22T23:35:55.102Z,100159.45
2018-08-22T23:38:30.674Z,100152.69
2018-08-22T23:41:00.273Z,100148.19
2018-08-22T23:43:39.038Z,100146.13
2018-08-22T23:46:09.144Z,100144.13
2018-08-22T23:48:38.441Z,100143.84
2018-08-22T23:51:11.237Z,100144.14
2018-08-22T23:53:45.677Z,100138.98
2018-08-22T23:56:24.850Z,100131.42
2018-08-22T23:58:54.753Z,100132.26
